Terminal Aerodrome Forecast
Issued by NWS

Current Version | Previous Version | Graphics & Text | Print | Product List | Glossary On
Versions: 1 2 3 4 5 6 7 8 9 10 11 12 13 14 15 16 17 18 19 20 21 22 23 24
000
FTUS41 KRLX 282300 RRA
TAFCKB
TAF
KCKB 282343Z 2900/2924 00000KT P6SM SKC
     FM291400 15004KT P6SM BKN110
     FM291800 19008KT 5SM -RA BR OVC060
     FM292300 22008KT 5SM -RA BR OVC025=

USA.gov is the U.S. government's official web portal to all federal, state and local government web resources and services.